Time;durP1;ratioP1;P1;durP2;ratioP2;P2;SDS_P1;SDS_P2;PMS_P1;PMS_P2;Temp;Humidity;BMP_temperature;BMP_pressure;BME280_temperature;BME280_humidity;BME280_pressure;Samples;Min_cycle;Max_cycle;Signal;HPM_P1;HPM_P2
2022/05/19 00:01:37;;;;;;;;;;;;;;;18.24;48.86;98582.66;5144614;27;19923;-58
2022/05/19 00:04:05;;;;;;;;;;;;;;;18.20;49.03;98581.72;5150256;27;19937;-59
2022/05/19 00:06:33;;;;;;;;;;;;;;;18.20;48.71;98578.97;5159111;27;20307;-58
2022/05/19 00:09:01;;;;;;;;;;;;;;;18.18;48.60;98573.03;5157451;27;19966;-58
2022/05/19 00:11:32;;;;;;;;;;;;;;;18.17;48.39;98576.94;5153346;27;19934;-58
2022/05/19 00:14:00;;;;;;;;;;;;;;;18.05;47.96;98574.97;5155500;27;19938;-58
2022/05/19 00:16:29;;;;;;;;;;;;;;;18.06;47.68;98567.56;5154755;27;20417;-58
2022/05/19 00:18:57;;;;;;;;;;;;;;;18.15;46.82;98573.72;5163928;27;19977;-58
2022/05/19 00:21:25;;;;;;;;;;;;;;;18.09;46.80;98580.59;5161985;27;19927;-58
2022/05/19 00:23:53;;;;;;;;;;;;;;;18.06;46.68;98575.81;5148972;27;20284;-59
2022/05/19 00:26:21;;;;;;;;;;;;;;;18.08;46.41;98573.50;5153510;27;19926;-58
2022/05/19 00:28:51;;;;;;;;;;;;;;;18.06;45.97;98570.31;5142957;27;19970;-59
2022/05/19 00:31:19;;;;;;;;;;;;;;;18.12;45.88;98568.91;5143129;27;20025;-58
2022/05/19 00:33:47;;;;;;;;;;;;;;;18.14;45.57;98566.63;5146250;27;19998;-58
2022/05/19 00:36:17;;;;;;;;;;;;;;;18.22;45.34;98556.66;5146424;27;19926;-59
2022/05/19 00:38:45;;;;;;;;;;;;;;;18.24;44.98;98566.16;5161620;27;19934;-59
2022/05/19 00:41:13;;;;;;;;;;;;;;;18.17;45.28;98565.13;5157090;27;20190;-58
2022/05/19 00:43:45;;;;;;;;;;;;;;;17.94;45.47;98557.34;5156776;27;19919;-58
2022/05/19 00:46:16;;;;;;;;;;;;;;;18.01;45.14;98565.03;5161346;27;19922;-58
2022/05/19 00:48:45;;;;;;;;;;;;;;;18.06;44.68;98564.81;5148267;27;19929;-60
2022/05/19 00:51:14;;;;;;;;;;;;;;;17.98;44.48;98563.75;5157983;27;19931;-58
2022/05/19 00:53:42;;;;;;;;;;;;;;;18.00;44.29;98566.16;5151308;27;20381;-58
2022/05/19 00:56:14;;;;;;;;;;;;;;;18.04;44.68;98561.59;5139958;27;20430;-59
2022/05/19 00:58:44;;;;;;;;;;;;;;;17.82;45.82;98560.09;5162109;27;20245;-58
2022/05/19 01:01:13;;;;;;;;;;;;;;;17.75;46.17;98559.88;5155136;27;19949;-59
2022/05/19 01:03:48;;;;;;;;;;;;;;;17.73;46.30;98570.38;5151933;27;20093;-58
2022/05/19 01:06:16;;;;;;;;;;;;;;;17.76;46.02;98570.50;5161987;27;19923;-58
2022/05/19 01:08:46;;;;;;;;;;;;;;;17.69;46.02;98573.00;5168808;27;19918;-59
2022/05/19 01:11:14;;;;;;;;;;;;;;;17.71;46.45;98576.19;5159544;27;20016;-58
2022/05/19 01:13:42;;;;;;;;;;;;;;;17.60;46.39;98580.53;5153617;27;19938;-59
2022/05/19 01:16:10;;;;;;;;;;;;;;;17.63;46.72;98577.13;5160676;27;19923;-59
2022/05/19 01:18:38;;;;;;;;;;;;;;;17.46;47.17;98571.81;5154817;27;19926;-58
2022/05/19 01:21:10;;;;;;;;;;;;;;;17.48;47.19;98572.28;5137458;27;19931;-59
2022/05/19 01:23:41;;;;;;;;;;;;;;;17.54;46.32;98576.41;5153017;27;19926;-58
2022/05/19 01:26:10;;;;;;;;;;;;;;;17.32;46.99;98569.41;5161956;27;19923;-61
2022/05/19 01:28:39;;;;;;;;;;;;;;;17.32;47.10;98571.34;5150553;27;19919;-58
2022/05/19 01:31:23;;;;;;;;;;;;;;;17.31;46.95;98572.47;5142180;27;19941;-59
2022/05/19 01:33:52;;;;;;;;;;;;;;;17.35;46.69;98573.38;5144295;27;19941;-58
2022/05/19 01:36:20;;;;;;;;;;;;;;;17.40;46.30;98565.72;5144673;27;19919;-58
2022/05/19 01:38:48;;;;;;;;;;;;;;;17.40;46.51;98570.44;5159228;27;19946;-58
2022/05/19 01:41:22;;;;;;;;;;;;;;;17.49;45.68;98565.66;5140233;27;20403;-58
2022/05/19 01:43:54;;;;;;;;;;;;;;;17.53;45.76;98575.63;5165085;27;19923;-58
2022/05/19 01:46:23;;;;;;;;;;;;;;;17.45;45.91;98578.44;5150861;27;19923;-62
2022/05/19 01:48:52;;;;;;;;;;;;;;;17.36;46.08;98575.00;5142137;27;20232;-59
2022/05/19 01:51:22;;;;;;;;;;;;;;;17.26;46.08;98574.31;5148331;27;19923;-58
2022/05/19 01:53:51;;;;;;;;;;;;;;;17.16;46.29;98582.97;5149353;27;19926;-59
2022/05/19 01:56:20;;;;;;;;;;;;;;;17.24;45.82;98579.31;5157711;27;20361;-59
2022/05/19 01:58:49;;;;;;;;;;;;;;;17.19;45.88;98570.47;5135263;27;20011;-58
2022/05/19 02:01:20;;;;;;;;;;;;;;;17.14;46.33;98565.22;5148401;27;19927;-59
2022/05/19 02:03:51;;;;;;;;;;;;;;;17.14;46.25;98568.75;5147821;27;19919;-59
2022/05/19 02:06:25;;;;;;;;;;;;;;;17.25;45.87;98569.13;5145407;27;19923;-59
2022/05/19 02:08:54;;;;;;;;;;;;;;;17.09;46.23;98571.69;5167696;27;19942;-60
2022/05/19 02:11:23;;;;;;;;;;;;;;;17.04;46.30;98569.16;5165684;27;19975;-59
2022/05/19 02:13:51;;;;;;;;;;;;;;;17.09;45.91;98568.16;5142515;27;19984;-59
2022/05/19 02:16:21;;;;;;;;;;;;;;;17.02;45.98;98563.22;5148443;27;19919;-58
2022/05/19 02:18:50;;;;;;;;;;;;;;;16.98;46.09;98567.78;5165473;27;19977;-59
2022/05/19 02:21:21;;;;;;;;;;;;;;;17.01;46.10;98564.38;5160660;27;20233;-59
2022/05/19 02:23:49;;;;;;;;;;;;;;;16.96;46.23;98567.31;5149140;27;19922;-58
2022/05/19 02:26:41;;;;;;;;;;;;;;;17.08;45.70;98570.09;5152011;27;19925;-58
2022/05/19 02:29:10;;;;;;;;;;;;;;;16.90;46.03;98565.94;5134473;27;20019;-60
2022/05/19 02:31:43;;;;;;;;;;;;;;;16.95;46.09;98555.53;5126229;27;20564;-59
2022/05/19 02:34:11;;;;;;;;;;;;;;;16.87;46.09;98547.38;5146219;27;20337;-60
2022/05/19 02:36:39;;;;;;;;;;;;;;;16.97;45.70;98549.72;5146714;27;20369;-58
2022/05/19 02:39:08;;;;;;;;;;;;;;;16.82;46.17;98550.34;5157320;27;19998;-58
2022/05/19 02:41:36;;;;;;;;;;;;;;;16.75;46.23;98551.69;5153018;27;20022;-58
2022/05/19 02:44:04;;;;;;;;;;;;;;;16.64;46.62;98546.91;5155175;27;19935;-58
2022/05/19 02:46:33;;;;;;;;;;;;;;;16.62;46.41;98552.75;5155720;27;19919;-59
2022/05/19 02:49:02;;;;;;;;;;;;;;;16.61;46.32;98551.13;5148032;27;19939;-58
2022/05/19 02:51:30;;;;;;;;;;;;;;;16.55;47.09;98546.97;5162538;27;20358;-58
2022/05/19 02:53:58;;;;;;;;;;;;;;;16.71;46.93;98548.00;5155270;27;20423;-58
2022/05/19 02:56:26;;;;;;;;;;;;;;;16.55;47.08;98540.69;5146286;27;19927;-58
2022/05/19 02:58:54;;;;;;;;;;;;;;;16.55;47.01;98549.72;5156297;27;20030;-60
2022/05/19 03:01:25;;;;;;;;;;;;;;;16.55;47.07;98546.19;5163071;27;19919;-60
2022/05/19 03:03:53;;;;;;;;;;;;;;;16.46;47.48;98554.50;5149045;27;20328;-61
2022/05/19 03:06:23;;;;;;;;;;;;;;;16.52;46.95;98547.66;5157928;27;19941;-60
2022/05/19 03:08:51;;;;;;;;;;;;;;;16.31;47.49;98549.59;5150021;27;20014;-60
2022/05/19 03:11:22;;;;;;;;;;;;;;;16.27;47.79;98546.72;5146642;27;20376;-60
2022/05/19 03:13:50;;;;;;;;;;;;;;;16.30;47.77;98546.06;5145524;27;19923;-59
2022/05/19 03:16:18;;;;;;;;;;;;;;;16.19;48.16;98551.13;5151803;27;19945;-59
2022/05/19 03:18:46;;;;;;;;;;;;;;;16.22;47.98;98546.91;5155921;27;19995;-59
2022/05/19 03:21:14;;;;;;;;;;;;;;;16.42;47.48;98548.88;5155952;27;19919;-59
2022/05/19 03:23:46;;;;;;;;;;;;;;;16.23;47.97;98559.47;5141893;27;20026;-60
2022/05/19 03:26:14;;;;;;;;;;;;;;;16.26;48.10;98552.53;5155029;27;20026;-60
2022/05/19 03:28:42;;;;;;;;;;;;;;;16.22;47.60;98561.41;5149746;27;20128;-58
2022/05/19 03:31:10;;;;;;;;;;;;;;;16.18;47.86;98551.44;5140171;27;20395;-59
2022/05/19 03:33:38;;;;;;;;;;;;;;;16.03;48.26;98552.81;5136912;27;20002;-58
2022/05/19 03:36:09;;;;;;;;;;;;;;;15.92;48.73;98557.06;5153051;27;20324;-59
2022/05/19 03:38:37;;;;;;;;;;;;;;;15.83;49.18;98550.84;5153996;27;19926;-58
2022/05/19 03:41:08;;;;;;;;;;;;;;;15.76;49.34;98553.28;5147079;27;19972;-62
2022/05/19 03:43:38;;;;;;;;;;;;;;;15.74;49.31;98556.34;5152290;27;20003;-58
2022/05/19 03:46:10;;;;;;;;;;;;;;;15.63;49.47;98553.19;5157197;27;19923;-58
2022/05/19 03:48:38;;;;;;;;;;;;;;;15.65;49.57;98548.16;5130875;27;20034;-58
2022/05/19 03:51:08;;;;;;;;;;;;;;;15.73;49.06;98552.03;5158690;27;19919;-59
2022/05/19 03:53:36;;;;;;;;;;;;;;;15.67;49.11;98551.41;5164471;27;20276;-58
2022/05/19 03:56:09;;;;;;;;;;;;;;;15.67;49.26;98553.34;5146144;27;19923;-59
2022/05/19 03:58:38;;;;;;;;;;;;;;;15.71;49.27;98552.34;5161709;27;19923;-59
2022/05/19 04:01:08;;;;;;;;;;;;;;;15.70;49.10;98561.69;5166409;27;19941;-59
2022/05/19 04:03:36;;;;;;;;;;;;;;;15.67;49.56;98556.88;5152098;27;20342;-58
2022/05/19 04:06:04;;;;;;;;;;;;;;;15.74;49.68;98555.56;5138401;27;19923;-58
2022/05/19 04:08:35;;;;;;;;;;;;;;;15.76;49.90;98559.56;5149413;27;20243;-58
2022/05/19 04:11:03;;;;;;;;;;;;;;;15.87;49.72;98554.50;5143644;27;19919;-58
2022/05/19 04:13:32;;;;;;;;;;;;;;;16.04;49.69;98551.69;5145739;27;20347;-57
2022/05/19 04:16:00;;;;;;;;;;;;;;;15.80;50.14;98551.50;5139134;27;19920;-58
2022/05/19 04:18:34;;;;;;;;;;;;;;;15.85;49.73;98545.84;5139956;27;20049;-58
2022/05/19 04:21:02;;;;;;;;;;;;;;;15.94;49.73;98546.59;5123793;27;19923;-58
2022/05/19 04:23:30;;;;;;;;;;;;;;;15.89;49.81;98544.03;5153634;27;19919;-58
2022/05/19 04:25:59;;;;;;;;;;;;;;;15.92;49.87;98546.09;5157230;27;20030;-58
2022/05/19 04:28:29;;;;;;;;;;;;;;;16.02;49.72;98545.72;5150601;27;19926;-58
2022/05/19 04:31:00;;;;;;;;;;;;;;;15.70;49.99;98550.72;5154542;27;20017;-59
2022/05/19 04:33:28;;;;;;;;;;;;;;;15.88;49.26;98545.97;5120259;27;20064;-58
2022/05/19 04:35:56;;;;;;;;;;;;;;;15.80;49.55;98551.50;5156522;27;19987;-58
2022/05/19 04:38:24;;;;;;;;;;;;;;;15.82;49.41;98552.78;5141734;27;19919;-58
2022/05/19 04:40:52;;;;;;;;;;;;;;;15.71;49.09;98552.34;5145375;27;20021;-58
2022/05/19 04:43:22;;;;;;;;;;;;;;;15.80;49.12;98548.75;5153098;27;19926;-59
2022/05/19 04:45:51;;;;;;;;;;;;;;;15.80;49.31;98548.75;5139972;27;20378;-58
2022/05/19 04:48:21;;;;;;;;;;;;;;;15.70;49.02;98553.47;5131333;27;19950;-58
2022/05/19 04:50:50;;;;;;;;;;;;;;;15.73;48.54;98552.03;5147317;27;20005;-58
2022/05/19 04:53:18;;;;;;;;;;;;;;;15.82;48.22;98551.97;5155099;27;19976;-59
2022/05/19 04:55:46;;;;;;;;;;;;;;;15.93;48.26;98553.22;5161971;27;19927;-59
2022/05/19 04:58:14;;;;;;;;;;;;;;;15.83;48.25;98548.91;5151443;27;19930;-58
2022/05/19 05:00:43;;;;;;;;;;;;;;;15.97;48.21;98551.41;5149781;27;19979;-59
2022/05/19 05:03:10;;;;;;;;;;;;;;;15.94;48.70;98557.56;5149412;27;19919;-58
2022/05/19 05:05:40;;;;;;;;;;;;;;;16.08;48.80;98558.09;5147869;27;19923;-59
2022/05/19 05:08:08;;;;;;;;;;;;;;;16.32;47.34;98559.41;5155107;27;20323;-58
2022/05/19 05:10:36;;;;;;;;;;;;;;;16.42;46.88;98559.03;5150741;27;19919;-59
2022/05/19 05:13:05;;;;;;;;;;;;;;;16.44;46.90;98557.53;5159069;27;19939;-59
2022/05/19 05:15:33;;;;;;;;;;;;;;;16.32;47.27;98568.44;5148848;27;19923;-59
2022/05/19 05:18:01;;;;;;;;;;;;;;;16.23;47.77;98562.22;5152877;27;19962;-59
2022/05/19 05:20:29;;;;;;;;;;;;;;;16.10;47.18;98568.75;5143454;27;20381;-59
2022/05/19 05:23:24;;;;;;;;;;;;;;;16.39;47.13;98567.91;5147661;27;20050;-62
2022/05/19 05:25:55;;;;;;;;;;;;;;;16.39;46.52;98556.94;5150110;27;20320;-62
2022/05/19 05:28:23;;;;;;;;;;;;;;;16.39;47.26;98565.16;5143936;27;19926;-59
2022/05/19 05:30:51;;;;;;;;;;;;;;;16.45;46.58;98569.31;5137484;27;20288;-59
2022/05/19 05:33:19;;;;;;;;;;;;;;;16.56;46.46;98564.22;5135581;27;19923;-59
2022/05/19 05:35:49;;;;;;;;;;;;;;;16.66;46.67;98558.34;5136959;27;20360;-60
2022/05/19 05:38:18;;;;;;;;;;;;;;;16.60;46.46;98562.44;5160677;27;19926;-58
2022/05/19 05:40:49;;;;;;;;;;;;;;;16.62;45.94;98569.22;5151770;27;19923;-57
2022/05/19 05:43:18;;;;;;;;;;;;;;;16.53;46.53;98554.75;5130857;27;19924;-58
2022/05/19 05:45:47;;;;;;;;;;;;;;;16.61;46.68;98556.59;5151794;27;20319;-60
2022/05/19 05:48:15;;;;;;;;;;;;;;;16.58;47.02;98568.25;5153750;27;20220;-58
2022/05/19 05:50:42;;;;;;;;;;;;;;;16.65;46.36;98562.22;5148270;27;20429;-57
2022/05/19 05:53:11;;;;;;;;;;;;;;;16.74;46.14;98560.25;5153379;27;20281;-57
2022/05/19 05:55:39;;;;;;;;;;;;;;;17.05;46.27;98562.56;5152710;27;19975;-57
2022/05/19 05:58:08;;;;;;;;;;;;;;;17.05;46.26;98559.81;5149763;27;19930;-58
2022/05/19 06:00:38;;;;;;;;;;;;;;;17.22;45.64;98569.81;5166936;27;20334;-58
2022/05/19 06:03:06;;;;;;;;;;;;;;;17.54;45.18;98570.91;5144854;27;20343;-58
2022/05/19 06:05:34;;;;;;;;;;;;;;;17.67;44.93;98575.28;5142902;27;19920;-59
2022/05/19 06:08:02;;;;;;;;;;;;;;;17.88;44.21;98575.22;5146228;27;19996;-58
2022/05/19 06:10:35;;;;;;;;;;;;;;;17.86;44.38;98569.25;5142907;27;19957;-57
2022/05/19 06:13:03;;;;;;;;;;;;;;;17.86;44.93;98574.75;5141962;27;19941;-58
2022/05/19 06:15:33;;;;;;;;;;;;;;;17.91;43.72;98566.28;5149781;27;19972;-58
2022/05/19 06:18:01;;;;;;;;;;;;;;;18.07;43.51;98571.91;5146921;27;19927;-59
2022/05/19 06:20:29;;;;;;;;;;;;;;;18.16;42.94;98564.31;5152877;27;20027;-58
2022/05/19 06:22:58;;;;;;;;;;;;;;;18.39;42.03;98558.34;5144524;27;19934;-59
2022/05/19 06:25:26;;;;;;;;;;;;;;;18.56;41.91;98550.59;5145188;27;20021;-58
2022/05/19 06:27:54;;;;;;;;;;;;;;;18.66;41.26;98546.56;5145108;27;19962;-59
2022/05/19 06:30:23;;;;;;;;;;;;;;;18.91;41.81;98538.22;5153246;27;20002;-59
2022/05/19 06:32:52;;;;;;;;;;;;;;;19.05;40.47;98544.16;5134024;27;20002;-57
2022/05/19 06:35:21;;;;;;;;;;;;;;;18.96;40.80;98540.75;5152881;27;19919;-57
2022/05/19 06:37:49;;;;;;;;;;;;;;;19.06;41.57;98541.03;5162608;27;20413;-58
2022/05/19 06:40:17;;;;;;;;;;;;;;;19.23;40.71;98533.59;5156775;27;19948;-57
2022/05/19 06:45:38;;;;;;;;;;;;;;;19.51;40.02;98539.06;5152146;27;19919;-58
2022/05/19 06:48:07;;;;;;;;;;;;;;;19.57;39.63;98527.41;5141631;27;19927;-61
2022/05/19 06:50:36;;;;;;;;;;;;;;;19.57;39.27;98532.13;5152788;27;19942;-58
2022/05/19 06:53:05;;;;;;;;;;;;;;;19.62;39.51;98535.44;5141374;27;19919;-58
2022/05/19 06:55:34;;;;;;;;;;;;;;;19.76;38.64;98546.03;5163612;27;19962;-58
2022/05/19 06:58:02;;;;;;;;;;;;;;;19.86;38.81;98536.41;5134459;27;19983;-58
2022/05/19 07:00:30;;;;;;;;;;;;;;;20.01;38.99;98543.06;5158499;27;19919;-58
2022/05/19 07:03:01;;;;;;;;;;;;;;;20.25;38.15;98539.28;5150007;27;19919;-58
2022/05/19 07:05:33;;;;;;;;;;;;;;;20.36;38.86;98541.13;5155307;27;19933;-57
2022/05/19 07:08:01;;;;;;;;;;;;;;;20.49;37.49;98539.06;5151935;27;19919;-57
2022/05/19 07:10:53;;;;;;;;;;;;;;;20.58;38.11;98536.88;5161031;27;20323;-57
2022/05/19 07:13:21;;;;;;;;;;;;;;;20.50;37.53;98534.34;5157538;27;19981;-56
2022/05/19 07:15:50;;;;;;;;;;;;;;;20.47;38.17;98540.59;5146675;27;20265;-57
2022/05/19 07:18:18;;;;;;;;;;;;;;;20.64;38.51;98532.69;5160376;27;19923;-58
2022/05/19 07:20:48;;;;;;;;;;;;;;;20.86;38.08;98524.81;5136202;27;20219;-57
2022/05/19 07:23:20;;;;;;;;;;;;;;;20.90;37.69;98525.69;5129766;27;20243;-57
2022/05/19 07:25:48;;;;;;;;;;;;;;;20.96;37.26;98524.25;5150127;27;20025;-57
2022/05/19 07:28:18;;;;;;;;;;;;;;;21.11;38.62;98525.31;5156668;27;19926;-57
2022/05/19 07:30:49;;;;;;;;;;;;;;;20.98;37.70;98519.13;5156994;27;19918;-57
2022/05/19 07:33:20;;;;;;;;;;;;;;;21.13;36.92;98517.44;5133565;27;19927;-60
2022/05/19 07:35:50;;;;;;;;;;;;;;;21.26;37.71;98521.66;5166337;27;19970;-57
2022/05/19 07:38:18;;;;;;;;;;;;;;;21.31;36.90;98518.63;5146386;27;19951;-58
2022/05/19 07:40:49;;;;;;;;;;;;;;;21.49;36.52;98518.13;5158078;27;20428;-57
2022/05/19 07:46:04;;;;;;;;;;;;;;;21.57;36.20;98528.13;5159674;27;19918;-56
2022/05/19 07:48:35;;;;;;;;;;;;;;;21.72;36.85;98532.72;5150408;27;19962;-56
2022/05/19 07:51:04;;;;;;;;;;;;;;;21.79;36.97;98532.06;5150170;27;19926;-57
2022/05/19 07:53:36;;;;;;;;;;;;;;;21.63;36.53;98532.19;5154742;27;19923;-57
2022/05/19 07:56:04;;;;;;;;;;;;;;;21.84;37.05;98529.78;5149722;27;19923;-61
2022/05/19 07:58:34;;;;;;;;;;;;;;;21.88;36.80;98536.16;5147086;27;19919;-58
2022/05/19 08:01:03;;;;;;;;;;;;;;;22.04;36.65;98532.44;5147358;27;20041;-58
2022/05/19 08:03:31;;;;;;;;;;;;;;;22.08;36.39;98539.63;5160582;27;20366;-58
2022/05/19 08:05:59;;;;;;;;;;;;;;;22.21;36.70;98543.00;5144238;27;20022;-54
2022/05/19 08:08:29;;;;;;;;;;;;;;;22.42;38.54;98535.00;5155916;27;20351;-55
2022/05/19 08:10:58;;;;;;;;;;;;;;;22.51;36.37;98539.47;5154274;27;20397;-55
2022/05/19 08:16:12;;;;;;;;;;;;;;;22.63;35.39;98536.47;5144607;27;19919;-55
2022/05/19 08:18:40;;;;;;;;;;;;;;;22.81;36.43;98537.50;5131446;27;19928;-55
2022/05/19 08:21:11;;;;;;;;;;;;;;;22.79;35.34;98537.06;5142078;27;19954;-55
2022/05/19 08:23:41;;;;;;;;;;;;;;;22.94;36.75;98535.28;5155162;27;20022;-55
2022/05/19 08:26:10;;;;;;;;;;;;;;;22.99;35.79;98529.41;5157013;27;19922;-56
2022/05/19 08:28:41;;;;;;;;;;;;;;;23.07;35.13;98527.53;5153439;27;19920;-55
2022/05/19 08:31:10;;;;;;;;;;;;;;;23.15;35.59;98527.22;5151499;27;20036;-56
2022/05/19 08:33:38;;;;;;;;;;;;;;;23.27;34.68;98531.69;5140658;27;19927;-55
2022/05/19 08:36:09;;;;;;;;;;;;;;;23.46;34.62;98527.91;5162573;27;19979;-56
2022/05/19 08:38:37;;;;;;;;;;;;;;;23.49;35.52;98527.97;5157917;27;20010;-55
2022/05/19 08:41:09;;;;;;;;;;;;;;;23.59;35.68;98531.19;5158910;27;19923;-55
2022/05/19 08:43:39;;;;;;;;;;;;;;;23.55;35.83;98527.63;5157816;27;19919;-55
2022/05/19 08:46:18;;;;;;;;;;;;;;;23.68;35.50;98517.84;5143611;27;19980;-55
2022/05/19 08:48:47;;;;;;;;;;;;;;;23.71;35.46;98512.34;5150296;27;19920;-56
2022/05/19 08:51:16;;;;;;;;;;;;;;;23.87;36.67;98511.25;5159684;27;20018;-55
2022/05/19 08:53:44;;;;;;;;;;;;;;;23.83;34.28;98515.97;5157734;27;19963;-55
2022/05/19 08:56:18;;;;;;;;;;;;;;;23.90;33.98;98514.03;5161602;27;20658;-55
2022/05/19 08:58:48;;;;;;;;;;;;;;;23.94;35.82;98512.09;5134295;27;19971;-56
2022/05/19 09:01:18;;;;;;;;;;;;;;;24.06;36.26;98510.97;5159312;27;19951;-59
2022/05/19 09:03:51;;;;;;;;;;;;;;;24.14;34.65;98504.31;5160604;27;20090;-55
2022/05/19 09:06:25;;;;;;;;;;;;;;;24.03;34.19;98504.25;5143156;27;20022;-56
2022/05/19 09:08:59;;;;;;;;;;;;;;;24.05;36.37;98503.84;5159350;27;19923;-59
2022/05/19 09:11:28;;;;;;;;;;;;;;;24.13;36.65;98496.34;5159443;27;20003;-56
2022/05/19 09:13:57;;;;;;;;;;;;;;;24.19;34.70;98495.63;5147815;27;19926;-55
2022/05/19 09:16:26;;;;;;;;;;;;;;;24.26;34.38;98489.31;5149586;27;19922;-56
2022/05/19 09:18:55;;;;;;;;;;;;;;;24.36;35.41;98485.81;5153947;27;19941;-55
2022/05/19 09:21:23;;;;;;;;;;;;;;;24.37;34.08;98478.28;5147023;27;20014;-57
2022/05/19 09:23:51;;;;;;;;;;;;;;;24.41;36.27;98482.66;5149164;27;20365;-56
2022/05/19 09:26:40;;;;;;;;;;;;;;;24.53;33.80;98487.88;5169396;27;19960;-55
2022/05/19 09:29:11;;;;;;;;;;;;;;;24.54;34.55;98481.13;5136156;27;20049;-56
2022/05/19 09:31:40;;;;;;;;;;;;;;;24.70;33.91;98468.88;5138372;27;19923;-56
2022/05/19 09:34:08;;;;;;;;;;;;;;;24.75;34.16;98463.75;5136735;27;20022;-56
2022/05/19 09:36:41;;;;;;;;;;;;;;;24.72;33.68;98466.53;5154945;27;19925;-56
2022/05/19 09:39:10;;;;;;;;;;;;;;;24.73;34.02;98468.91;5165337;27;20370;-56
2022/05/19 09:41:40;;;;;;;;;;;;;;;24.84;34.96;98466.16;5143306;27;19926;-56
2022/05/19 09:44:13;;;;;;;;;;;;;;;24.91;34.48;98477.28;5157623;27;19918;-55
2022/05/19 09:46:42;;;;;;;;;;;;;;;24.96;34.84;98462.22;5134481;27;19923;-55
2022/05/19 09:49:19;;;;;;;;;;;;;;;24.99;33.52;98461.44;5138996;27;19948;-56
2022/05/19 09:51:49;;;;;;;;;;;;;;;25.16;35.20;98462.69;5157251;27;19919;-55
2022/05/19 09:54:18;;;;;;;;;;;;;;;25.11;33.80;98460.31;5162799;27;19933;-55
2022/05/19 09:56:49;;;;;;;;;;;;;;;25.05;33.38;98454.31;5134638;27;19931;-56
2022/05/19 09:59:23;;;;;;;;;;;;;;;25.14;35.31;98451.16;5133439;27;19963;-55
2022/05/19 10:01:51;;;;;;;;;;;;;;;25.19;33.79;98447.97;5133108;27;20003;-57
2022/05/19 10:04:37;;;;;;;;;;;;;;;25.11;32.68;98454.75;5139295;27;21279;-55
2022/05/19 10:07:07;;;;;;;;;;;;;;;25.12;34.18;98454.34;5136162;27;19941;-59
2022/05/19 10:09:41;;;;;;;;;;;;;;;25.16;33.41;98455.16;5137194;27;19995;-55
2022/05/19 10:12:10;;;;;;;;;;;;;;;25.27;34.75;98455.94;5115296;27;20359;-56
2022/05/19 10:14:41;;;;;;;;;;;;;;;25.39;35.55;98451.19;5136609;27;19919;-56
2022/05/19 10:17:12;;;;;;;;;;;;;;;25.41;34.34;98454.34;5135194;27;20408;-56
2022/05/19 10:19:42;;;;;;;;;;;;;;;25.31;35.90;98447.63;5137870;27;19938;-56
2022/05/19 10:22:15;;;;;;;;;;;;;;;25.28;33.49;98445.63;5130152;27;20093;-55
2022/05/19 10:24:53;;;;;;;;;;;;;;;25.40;34.71;98439.66;5121716;27;19923;-58
2022/05/19 10:32:59;;;;;;;;;;;;;;;25.53;33.67;98435.28;5112116;27;19919;-56
2022/05/19 10:35:29;;;;;;;;;;;;;;;25.50;33.52;98424.16;5141363;27;20372;-57
2022/05/19 10:38:01;;;;;;;;;;;;;;;25.43;32.08;98429.72;5134456;27;19919;-57
2022/05/19 10:40:34;;;;;;;;;;;;;;;25.47;35.00;98431.31;5135020;27;20012;-56
2022/05/19 10:43:05;;;;;;;;;;;;;;;25.51;33.92;98426.53;5142251;27;19919;-56
2022/05/19 10:45:35;;;;;;;;;;;;;;;25.51;33.83;98420.16;5138977;27;20337;-57
2022/05/19 10:48:19;;;;;;;;;;;;;;;25.69;34.01;98417.41;5137543;27;19924;-57
2022/05/19 10:50:47;;;;;;;;;;;;;;;25.67;33.48;98416.97;5090029;27;19919;-56
2022/05/19 10:53:22;;;;;;;;;;;;;;;25.68;32.94;98407.47;5131021;27;19968;-56
2022/05/19 10:55:54;;;;;;;;;;;;;;;25.69;31.78;98401.50;5155746;27;19979;-57
2022/05/19 10:58:28;;;;;;;;;;;;;;;25.78;32.35;98406.66;5154958;27;20006;-56
2022/05/19 11:01:04;;;;;;;;;;;;;;;25.72;31.46;98399.88;5154310;27;19943;-56
2022/05/19 11:03:49;;;;;;;;;;;;;;;25.88;33.01;98402.25;5156615;27;19925;-56
2022/05/19 11:06:26;;;;;;;;;;;;;;;25.90;31.84;98397.91;5146060;27;20025;-55
2022/05/19 11:08:57;;;;;;;;;;;;;;;25.86;33.05;98392.34;5149866;27;19926;-56
2022/05/19 11:11:27;;;;;;;;;;;;;;;25.90;33.69;98391.53;5152121;27;20033;-56
2022/05/19 11:14:01;;;;;;;;;;;;;;;25.93;33.85;98393.50;5148951;27;19938;-55
2022/05/19 11:16:34;;;;;;;;;;;;;;;25.96;32.88;98393.50;5145204;27;19918;-55
2022/05/19 11:19:04;;;;;;;;;;;;;;;26.09;31.79;98391.84;5139508;27;20286;-56
2022/05/19 11:21:33;;;;;;;;;;;;;;;26.10;33.12;98382.31;5139653;27;20025;-55
2022/05/19 11:24:02;;;;;;;;;;;;;;;26.09;33.33;98385.50;5154262;27;19976;-56
2022/05/19 11:26:31;;;;;;;;;;;;;;;26.29;33.67;98380.25;5140093;27;19938;-55
2022/05/19 11:29:04;;;;;;;;;;;;;;;26.43;31.44;98369.09;5142825;27;19919;-55
2022/05/19 11:31:38;;;;;;;;;;;;;;;26.34;32.06;98374.25;5137795;27;19923;-56
2022/05/19 11:34:09;;;;;;;;;;;;;;;26.33;33.07;98378.25;5143365;27;19952;-56
2022/05/19 11:36:38;;;;;;;;;;;;;;;26.42;32.48;98375.03;5152414;27;19922;-56
2022/05/19 11:39:07;;;;;;;;;;;;;;;26.53;31.21;98371.03;5142935;27;20475;-57
2022/05/19 11:41:36;;;;;;;;;;;;;;;26.47;31.47;98374.63;5155031;27;20038;-57
2022/05/19 11:44:05;;;;;;;;;;;;;;;26.56;31.29;98356.25;5164343;27;19923;-59
2022/05/19 11:46:36;;;;;;;;;;;;;;;26.76;31.19;98369.69;5150348;27;19923;-56
2022/05/19 11:55:17;;;;;;;;;;;;;;;27.04;31.31;98363.09;5156604;27;20240;-56
2022/05/19 11:57:52;;;;;;;;;;;;;;;26.66;32.81;98368.53;5153941;27;19983;-55
2022/05/19 12:00:21;;;;;;;;;;;;;;;26.46;33.88;98373.81;5162084;27;19923;-56
2022/05/19 12:02:51;;;;;;;;;;;;;;;26.24;33.98;98377.88;5145991;27;20362;-55
2022/05/19 12:05:23;;;;;;;;;;;;;;;26.18;31.48;98368.38;5144134;27;20224;-54
2022/05/19 12:07:52;;;;;;;;;;;;;;;26.13;34.34;98370.38;5150594;27;19929;-56
2022/05/19 12:10:24;;;;;;;;;;;;;;;26.22;31.67;98363.59;5152723;27;20330;-56
2022/05/19 12:13:19;;;;;;;;;;;;;;;26.07;31.59;98366.41;5148922;27;19981;-56
2022/05/19 12:15:51;;;;;;;;;;;;;;;26.25;32.34;98368.31;5159642;27;19934;-56
2022/05/19 12:18:38;;;;;;;;;;;;;;;26.52;30.58;98354.69;5151709;27;20017;-54
2022/05/19 12:21:31;;;;;;;;;;;;;;;26.62;33.30;98354.63;5145544;27;19931;-56
2022/05/19 12:24:04;;;;;;;;;;;;;;;26.56;31.83;98358.25;5154292;27;19923;-55
2022/05/19 12:26:37;;;;;;;;;;;;;;;26.49;32.05;98356.31;5149926;27;19919;-56
2022/05/19 12:29:16;;;;;;;;;;;;;;;26.49;33.78;98353.53;5149760;27;20022;-56
2022/05/19 12:32:01;;;;;;;;;;;;;;;26.55;31.83;98354.69;5144734;27;19930;-56
2022/05/19 12:34:42;;;;;;;;;;;;;;;26.56;32.81;98358.25;5152978;27;20026;-55
2022/05/19 12:37:12;;;;;;;;;;;;;;;26.77;32.76;98354.53;5138302;27;19934;-54
2022/05/19 12:39:45;;;;;;;;;;;;;;;26.78;33.20;98345.75;5141057;27;19931;-55
2022/05/19 12:42:34;;;;;;;;;;;;;;;26.80;32.76;98342.59;5159285;27;19927;-55
2022/05/19 12:45:08;;;;;;;;;;;;;;;26.57;34.09;98338.34;5160561;27;19927;-55
2022/05/19 12:47:38;;;;;;;;;;;;;;;26.53;33.24;98331.22;5156581;27;19927;-54
2022/05/19 12:50:18;;;;;;;;;;;;;;;26.31;34.36;98339.66;5157738;27;19976;-54
2022/05/19 12:52:54;;;;;;;;;;;;;;;26.44;34.22;98328.88;5162389;27;19965;-54
2022/05/19 12:55:31;;;;;;;;;;;;;;;26.05;34.62;98332.63;5166145;27;20319;-59
2022/05/19 12:58:04;;;;;;;;;;;;;;;26.19;34.37;98326.19;5153864;27;20021;-57
2022/05/19 13:00:34;;;;;;;;;;;;;;;26.11;34.23;98322.66;5159359;27;19919;-57
2022/05/19 13:03:04;;;;;;;;;;;;;;;26.31;33.72;98317.38;5156103;27;20374;-57
2022/05/19 13:05:34;;;;;;;;;;;;;;;26.52;33.84;98316.47;5152487;27;19919;-56
2022/05/19 13:08:04;;;;;;;;;;;;;;;26.75;33.84;98315.13;5155707;27;19938;-57
2022/05/19 13:10:36;;;;;;;;;;;;;;;26.79;33.47;98313.09;5146814;27;19919;-56
2022/05/19 13:13:05;;;;;;;;;;;;;;;26.93;32.44;98309.41;5159514;27;19975;-55
2022/05/19 13:15:33;;;;;;;;;;;;;;;26.96;32.75;98309.41;5152213;27;19998;-56
2022/05/19 13:18:05;;;;;;;;;;;;;;;27.00;32.23;98307.34;5161001;27;19919;-58
2022/05/19 13:20:35;;;;;;;;;;;;;;;26.91;33.54;98307.06;5155321;27;19926;-56
2022/05/19 13:23:09;;;;;;;;;;;;;;;26.88;32.97;98311.44;5151610;27;19931;-56
2022/05/19 13:25:43;;;;;;;;;;;;;;;26.56;34.17;98308.88;5146880;27;19919;-57